sensor_id;sensor_type;location;lat;lon;timestamp;temperature;humidity
49901;DHT22;35789;48.414;12.768;2023-06-10T00:00:00;14.6;99.9
49901;DHT22;35789;48.414;12.768;2023-06-10T00:05:00;14.6;99.9
49901;DHT22;35789;48.414;12.768;2023-06-10T00:10:00;14.6;99.9
49901;DHT22;35789;48.414;12.768;2023-06-10T00:15:00;14.6;99.9
49901;DHT22;35789;48.414;12.768;2023-06-10T00:20:00;14.5;99.9
49901;DHT22;35789;48.414;12.768;2023-06-10T00:25:00;14.4;99.9
49901;DHT22;35789;48.414;12.768;2023-06-10T00:30:00;14.4;99.9
49901;DHT22;35789;48.414;12.768;2023-06-10T00:35:00;14.2;99.9
49901;DHT22;35789;48.414;12.768;2023-06-10T00:40:00;14.2;99.9
49901;DHT22;35789;48.414;12.768;2023-06-10T00:45:00;14.2;99.9
49901;DHT22;35789;48.414;12.768;2023-06-10T00:50:00;14.3;99.9
49901;DHT22;35789;48.414;12.768;2023-06-10T00:55:00;14.2;99.9
49901;DHT22;35789;48.414;12.768;2023-06-10T01:00:00;14.1;99.9
49901;DHT22;35789;48.414;12.768;2023-06-10T01:05:00;14.0;99.9
49901;DHT22;35789;48.414;12.768;2023-06-10T01:10:01;13.9;99.9
49901;DHT22;35789;48.414;12.768;2023-06-10T01:15:00;13.9;99.9
49901;DHT22;35789;48.414;12.768;2023-06-10T01:20:00;13.8;99.9
49901;DHT22;35789;48.414;12.768;2023-06-10T01:25:00;13.7;99.9
49901;DHT22;35789;48.414;12.768;2023-06-10T01:30:02;13.7;99.9
49901;DHT22;35789;48.414;12.768;2023-06-10T01:35:00;13.7;99.9
49901;DHT22;35789;48.414;12.768;2023-06-10T01:40:00;13.7;99.9
49901;DHT22;35789;48.414;12.768;2023-06-10T01:45:00;13.6;99.9
49901;DHT22;35789;48.414;12.768;2023-06-10T01:50:00;13.4;99.9
49901;DHT22;35789;48.414;12.768;2023-06-10T01:55:00;13.5;99.9
49901;DHT22;35789;48.414;12.768;2023-06-10T02:00:00;13.4;99.9
49901;DHT22;35789;48.414;12.768;2023-06-10T02:05:00;13.3;99.9
49901;DHT22;35789;48.414;12.768;2023-06-10T02:10:00;13.3;99.9
49901;DHT22;35789;48.414;12.768;2023-06-10T02:15:00;13.3;99.9
49901;DHT22;35789;48.414;12.768;2023-06-10T02:20:00;13.3;99.9
49901;DHT22;35789;48.414;12.768;2023-06-10T02:25:00;13.3;99.9
49901;DHT22;35789;48.414;12.768;2023-06-10T02:30:00;13.3;99.9
49901;DHT22;35789;48.414;12.768;2023-06-10T02:35:00;13.2;99.9
49901;DHT22;35789;48.414;12.768;2023-06-10T02:40:00;13.2;99.9
49901;DHT22;35789;48.414;12.768;2023-06-10T02:45:00;13.0;99.9
49901;DHT22;35789;48.414;12.768;2023-06-10T02:50:00;13.0;99.9
49901;DHT22;35789;48.414;12.768;2023-06-10T02:55:00;13.0;99.9
49901;DHT22;35789;48.414;12.768;2023-06-10T03:00:00;13.0;99.9
49901;DHT22;35789;48.414;12.768;2023-06-10T03:05:00;12.9;99.9
49901;DHT22;35789;48.414;12.768;2023-06-10T03:10:00;12.9;99.9
49901;DHT22;35789;48.414;12.768;2023-06-10T03:15:00;12.9;99.9
49901;DHT22;35789;48.414;12.768;2023-06-10T03:20:00;12.9;99.9
49901;DHT22;35789;48.414;12.768;2023-06-10T03:25:00;12.9;99.9
49901;DHT22;35789;48.414;12.768;2023-06-10T03:30:00;12.9;99.9
49901;DHT22;35789;48.414;12.768;2023-06-10T03:35:00;12.9;99.9
49901;DHT22;35789;48.414;12.768;2023-06-10T03:40:00;12.9;99.9
49901;DHT22;35789;48.414;12.768;2023-06-10T03:45:00;12.8;99.9
49901;DHT22;35789;48.414;12.768;2023-06-10T03:50:00;12.8;99.9
49901;DHT22;35789;48.414;12.768;2023-06-10T03:55:00;12.8;99.9
49901;DHT22;35789;48.414;12.768;2023-06-10T04:00:00;12.7;99.9
49901;DHT22;35789;48.414;12.768;2023-06-10T04:05:00;12.6;99.9
49901;DHT22;35789;48.414;12.768;2023-06-10T04:10:00;12.7;99.9
49901;DHT22;35789;48.414;12.768;2023-06-10T04:15:00;12.9;99.9
49901;DHT22;35789;48.414;12.768;2023-06-10T04:20:00;12.9;99.9
49901;DHT22;35789;48.414;12.768;2023-06-10T04:25:00;12.9;99.9
49901;DHT22;35789;48.414;12.768;2023-06-10T04:30:00;13.1;99.9
49901;DHT22;35789;48.414;12.768;2023-06-10T04:35:00;13.1;99.9
49901;DHT22;35789;48.414;12.768;2023-06-10T04:40:00;13.1;99.9
49901;DHT22;35789;48.414;12.768;2023-06-10T04:45:00;13.2;99.9
49901;DHT22;35789;48.414;12.768;2023-06-10T04:50:00;13.3;99.9
49901;DHT22;35789;48.414;12.768;2023-06-10T04:55:00;13.3;99.9
49901;DHT22;35789;48.414;12.768;2023-06-10T05:00:00;13.3;99.9
49901;DHT22;35789;48.414;12.768;2023-06-10T05:05:00;13.3;99.9
49901;DHT22;35789;48.414;12.768;2023-06-10T05:10:00;13.4;99.9
49901;DHT22;35789;48.414;12.768;2023-06-10T05:15:00;13.4;99.9
49901;DHT22;35789;48.414;12.768;2023-06-10T05:20:00;13.4;99.9
49901;DHT22;35789;48.414;12.768;2023-06-10T05:25:00;13.5;99.9
49901;DHT22;35789;48.414;12.768;2023-06-10T05:30:00;13.6;99.9
49901;DHT22;35789;48.414;12.768;2023-06-10T05:35:00;13.7;99.9
49901;DHT22;35789;48.414;12.768;2023-06-10T05:40:00;13.7;99.9
49901;DHT22;35789;48.414;12.768;2023-06-10T05:45:00;13.8;99.9
49901;DHT22;35789;48.414;12.768;2023-06-10T05:50:00;13.9;99.9
49901;DHT22;35789;48.414;12.768;2023-06-10T05:55:00;14.1;99.9
49901;DHT22;35789;48.414;12.768;2023-06-10T06:00:00;14.2;99.9
49901;DHT22;35789;48.414;12.768;2023-06-10T06:05:00;14.4;99.9
49901;DHT22;35789;48.414;12.768;2023-06-10T06:10:00;14.7;99.9
49901;DHT22;35789;48.414;12.768;2023-06-10T06:15:00;15.2;99.9
49901;DHT22;35789;48.414;12.768;2023-06-10T06:20:00;15.5;99.9
49901;DHT22;35789;48.414;12.768;2023-06-10T06:25:00;15.8;99.9
49901;DHT22;35789;48.414;12.768;2023-06-10T06:30:00;16.1;99.9
49901;DHT22;35789;48.414;12.768;2023-06-10T06:35:00;16.2;99.9
49901;DHT22;35789;48.414;12.768;2023-06-10T06:40:00;16.3;99.9
49901;DHT22;35789;48.414;12.768;2023-06-10T06:45:00;16.4;99.9
49901;DHT22;35789;48.414;12.768;2023-06-10T06:50:00;16.5;99.9
49901;DHT22;35789;48.414;12.768;2023-06-10T06:55:00;16.6;99.9
49901;DHT22;35789;48.414;12.768;2023-06-10T07:00:00;16.7;99.9
49901;DHT22;35789;48.414;12.768;2023-06-10T07:05:00;16.9;99.9
49901;DHT22;35789;48.414;12.768;2023-06-10T07:10:00;16.9;99.9
49901;DHT22;35789;48.414;12.768;2023-06-10T07:15:00;17.1;99.9
49901;DHT22;35789;48.414;12.768;2023-06-10T07:20:00;17.2;99.9
49901;DHT22;35789;48.414;12.768;2023-06-10T07:25:00;17.3;99.9
49901;DHT22;35789;48.414;12.768;2023-06-10T07:30:00;17.4;99.9
49901;DHT22;35789;48.414;12.768;2023-06-10T07:35:00;17.5;99.9
49901;DHT22;35789;48.414;12.768;2023-06-10T07:40:00;17.7;99.9
49901;DHT22;35789;48.414;12.768;2023-06-10T07:45:00;18.1;99.9
49901;DHT22;35789;48.414;12.768;2023-06-10T07:50:00;18.2;99.9
49901;DHT22;35789;48.414;12.768;2023-06-10T07:55:00;18.5;99.9
49901;DHT22;35789;48.414;12.768;2023-06-10T08:00:00;18.6;99.9
49901;DHT22;35789;48.414;12.768;2023-06-10T08:05:00;18.6;99.7
49901;DHT22;35789;48.414;12.768;2023-06-10T08:10:00;18.6;99.9
49901;DHT22;35789;48.414;12.768;2023-06-10T08:15:00;18.7;99.9
49901;DHT22;35789;48.414;12.768;2023-06-10T08:20:00;18.9;99.9
49901;DHT22;35789;48.414;12.768;2023-06-10T08:25:00;18.9;99.9
49901;DHT22;35789;48.414;12.768;2023-06-10T08:30:00;19.2;99.9
49901;DHT22;35789;48.414;12.768;2023-06-10T08:35:00;20.2;98.2
49901;DHT22;35789;48.414;12.768;2023-06-10T08:40:00;20.6;96.7
49901;DHT22;35789;48.414;12.768;2023-06-10T08:45:00;20.6;97.5
49901;DHT22;35789;48.414;12.768;2023-06-10T08:50:01;20.3;95.9
49901;DHT22;35789;48.414;12.768;2023-06-10T08:55:01;20.4;97.1
49901;DHT22;35789;48.414;12.768;2023-06-10T09:00:00;20.3;96.3
49901;DHT22;35789;48.414;12.768;2023-06-10T09:05:00;20.2;97.0
49901;DHT22;35789;48.414;12.768;2023-06-10T09:10:00;20.3;95.4
49901;DHT22;35789;48.414;12.768;2023-06-10T09:15:00;20.6;96.0
49901;DHT22;35789;48.414;12.768;2023-06-10T09:20:00;21.2;96.0
49901;DHT22;35789;48.414;12.768;2023-06-10T09:25:03;21.2;95.1
49901;DHT22;35789;48.414;12.768;2023-06-10T09:30:00;21.3;96.6
49901;DHT22;35789;48.414;12.768;2023-06-10T09:35:00;21.5;95.4
49901;DHT22;35789;48.414;12.768;2023-06-10T09:40:02;21.5;95.5
49901;DHT22;35789;48.414;12.768;2023-06-10T09:45:00;21.5;94.6
49901;DHT22;35789;48.414;12.768;2023-06-10T09:50:00;21.7;94.7
49901;DHT22;35789;48.414;12.768;2023-06-10T09:55:00;21.7;94.1
49901;DHT22;35789;48.414;12.768;2023-06-10T10:00:02;22.1;94.6
49901;DHT22;35789;48.414;12.768;2023-06-10T10:05:01;22.4;92.7
49901;DHT22;35789;48.414;12.768;2023-06-10T10:10:00;22.4;94.2
49901;DHT22;35789;48.414;12.768;2023-06-10T10:15:00;22.5;92.8
49901;DHT22;35789;48.414;12.768;2023-06-10T10:20:01;22.7;94.3
49901;DHT22;35789;48.414;12.768;2023-06-10T10:25:01;22.7;95.0
49901;DHT22;35789;48.414;12.768;2023-06-10T10:30:00;22.8;94.7
49901;DHT22;35789;48.414;12.768;2023-06-10T10:35:03;23.1;94.5
49901;DHT22;35789;48.414;12.768;2023-06-10T10:40:00;23.2;93.6
49901;DHT22;35789;48.414;12.768;2023-06-10T10:45:00;23.3;92.9
49901;DHT22;35789;48.414;12.768;2023-06-10T10:50:00;24.1;90.9
49901;DHT22;35789;48.414;12.768;2023-06-10T10:55:00;24.6;90.4
49901;DHT22;35789;48.414;12.768;2023-06-10T11:00:00;25.4;86.9
49901;DHT22;35789;48.414;12.768;2023-06-10T11:05:00;25.7;86.1
49901;DHT22;35789;48.414;12.768;2023-06-10T11:10:00;25.0;84.0
49901;DHT22;35789;48.414;12.768;2023-06-10T11:15:00;24.4;84.3
49901;DHT22;35789;48.414;12.768;2023-06-10T11:20:00;24.1;90.2
49901;DHT22;35789;48.414;12.768;2023-06-10T11:25:00;24.0;86.4
49901;DHT22;35789;48.414;12.768;2023-06-10T11:35:01;24.6;89.3
49901;DHT22;35789;48.414;12.768;2023-06-10T11:40:00;24.5;85.6
49901;DHT22;35789;48.414;12.768;2023-06-10T11:45:00;24.2;87.4
49901;DHT22;35789;48.414;12.768;2023-06-10T11:50:00;24.2;88.3
49901;DHT22;35789;48.414;12.768;2023-06-10T11:55:00;25.0;90.3
49901;DHT22;35789;48.414;12.768;2023-06-10T12:00:03;25.6;88.0
49901;DHT22;35789;48.414;12.768;2023-06-10T12:05:09;25.2;87.4
49901;DHT22;35789;48.414;12.768;2023-06-10T12:10:00;24.7;85.7
49901;DHT22;35789;48.414;12.768;2023-06-10T12:15:00;24.5;90.3
49901;DHT22;35789;48.414;12.768;2023-06-10T12:20:00;24.4;89.2
49901;DHT22;35789;48.414;12.768;2023-06-10T12:25:01;24.1;89.6
49901;DHT22;35789;48.414;12.768;2023-06-10T12:30:00;24.3;89.6
49901;DHT22;35789;48.414;12.768;2023-06-10T12:35:02;25.0;88.5
49901;DHT22;35789;48.414;12.768;2023-06-10T12:40:00;25.5;83.1
49901;DHT22;35789;48.414;12.768;2023-06-10T12:45:00;25.0;82.8
49901;DHT22;35789;48.414;12.768;2023-06-10T12:50:00;24.5;86.6
49901;DHT22;35789;48.414;12.768;2023-06-10T12:55:00;24.2;88.7
49901;DHT22;35789;48.414;12.768;2023-06-10T13:00:00;23.9;91.0
49901;DHT22;35789;48.414;12.768;2023-06-10T13:05:00;23.8;88.7
49901;DHT22;35789;48.414;12.768;2023-06-10T13:10:00;23.5;89.7
49901;DHT22;35789;48.414;12.768;2023-06-10T13:15:00;23.4;90.5
49901;DHT22;35789;48.414;12.768;2023-06-10T13:20:00;23.4;90.6
49901;DHT22;35789;48.414;12.768;2023-06-10T13:25:00;23.5;90.3
49901;DHT22;35789;48.414;12.768;2023-06-10T13:30:00;23.5;90.8
49901;DHT22;35789;48.414;12.768;2023-06-10T13:35:00;23.4;90.4
49901;DHT22;35789;48.414;12.768;2023-06-10T13:40:00;23.5;91.4
49901;DHT22;35789;48.414;12.768;2023-06-10T13:45:00;23.5;90.5
49901;DHT22;35789;48.414;12.768;2023-06-10T13:50:00;23.5;90.1
49901;DHT22;35789;48.414;12.768;2023-06-10T13:55:00;23.7;88.8
49901;DHT22;35789;48.414;12.768;2023-06-10T14:00:00;23.6;89.6
49901;DHT22;35789;48.414;12.768;2023-06-10T14:05:00;23.6;90.9
49901;DHT22;35789;48.414;12.768;2023-06-10T14:10:00;23.4;90.4
49901;DHT22;35789;48.414;12.768;2023-06-10T14:15:00;23.3;87.6
49901;DHT22;35789;48.414;12.768;2023-06-10T14:20:00;23.0;90.6
49901;DHT22;35789;48.414;12.768;2023-06-10T14:25:00;22.9;90.8
49901;DHT22;35789;48.414;12.768;2023-06-10T14:30:00;23.0;90.9
49901;DHT22;35789;48.414;12.768;2023-06-10T14:35:00;23.2;90.8
49901;DHT22;35789;48.414;12.768;2023-06-10T14:40:00;23.4;90.2
49901;DHT22;35789;48.414;12.768;2023-06-10T14:45:00;23.5;90.8
49901;DHT22;35789;48.414;12.768;2023-06-10T14:50:00;23.4;88.5
49901;DHT22;35789;48.414;12.768;2023-06-10T14:55:00;23.3;91.8
49901;DHT22;35789;48.414;12.768;2023-06-10T15:00:00;23.3;90.8
49901;DHT22;35789;48.414;12.768;2023-06-10T15:05:00;23.1;89.0
49901;DHT22;35789;48.414;12.768;2023-06-10T15:10:00;23.2;91.4
49901;DHT22;35789;48.414;12.768;2023-06-10T15:15:00;23.3;90.5
49901;DHT22;35789;48.414;12.768;2023-06-10T15:20:00;23.4;90.6
49901;DHT22;35789;48.414;12.768;2023-06-10T15:25:00;23.2;90.4
49901;DHT22;35789;48.414;12.768;2023-06-10T15:30:00;23.3;90.9
49901;DHT22;35789;48.414;12.768;2023-06-10T15:35:00;23.1;90.5
49901;DHT22;35789;48.414;12.768;2023-06-10T15:40:00;22.5;91.7
49901;DHT22;35789;48.414;12.768;2023-06-10T15:45:00;22.1;92.0
49901;DHT22;35789;48.414;12.768;2023-06-10T15:50:00;21.5;94.6
49901;DHT22;35789;48.414;12.768;2023-06-10T15:55:00;20.5;97.1
49901;DHT22;35789;48.414;12.768;2023-06-10T16:00:00;19.6;99.9
49901;DHT22;35789;48.414;12.768;2023-06-10T16:05:00;19.2;99.9
49901;DHT22;35789;48.414;12.768;2023-06-10T16:10:00;18.8;99.9
49901;DHT22;35789;48.414;12.768;2023-06-10T16:15:00;18.6;99.9
49901;DHT22;35789;48.414;12.768;2023-06-10T16:20:00;18.5;99.9
49901;DHT22;35789;48.414;12.768;2023-06-10T16:25:00;18.4;99.9
49901;DHT22;35789;48.414;12.768;2023-06-10T16:30:00;18.3;99.9
49901;DHT22;35789;48.414;12.768;2023-06-10T16:35:00;18.3;99.9
49901;DHT22;35789;48.414;12.768;2023-06-10T16:40:00;18.3;99.9
49901;DHT22;35789;48.414;12.768;2023-06-10T16:45:00;18.4;99.9
49901;DHT22;35789;48.414;12.768;2023-06-10T16:50:00;18.4;99.9
49901;DHT22;35789;48.414;12.768;2023-06-10T16:55:00;18.5;99.9
49901;DHT22;35789;48.414;12.768;2023-06-10T17:00:00;18.5;99.9
49901;DHT22;35789;48.414;12.768;2023-06-10T17:05:00;18.5;99.9
49901;DHT22;35789;48.414;12.768;2023-06-10T17:10:00;18.6;99.9
49901;DHT22;35789;48.414;12.768;2023-06-10T17:15:00;18.6;99.9
49901;DHT22;35789;48.414;12.768;2023-06-10T17:20:00;18.7;99.9
49901;DHT22;35789;48.414;12.768;2023-06-10T17:25:00;18.8;99.9
49901;DHT22;35789;48.414;12.768;2023-06-10T17:30:00;18.8;99.9
49901;DHT22;35789;48.414;12.768;2023-06-10T17:35:00;18.6;99.9
49901;DHT22;35789;48.414;12.768;2023-06-10T17:40:00;18.4;99.9
49901;DHT22;35789;48.414;12.768;2023-06-10T17:45:00;18.2;99.9
49901;DHT22;35789;48.414;12.768;2023-06-10T17:50:00;18.1;99.9
49901;DHT22;35789;48.414;12.768;2023-06-10T17:55:00;18.1;99.9
49901;DHT22;35789;48.414;12.768;2023-06-10T18:00:00;18.1;99.9
49901;DHT22;35789;48.414;12.768;2023-06-10T18:05:00;18.1;99.9
49901;DHT22;35789;48.414;12.768;2023-06-10T18:10:00;18.1;99.9
49901;DHT22;35789;48.414;12.768;2023-06-10T18:15:00;18.0;99.9
49901;DHT22;35789;48.414;12.768;2023-06-10T18:20:00;18.0;99.9
49901;DHT22;35789;48.414;12.768;2023-06-10T18:25:00;17.9;99.9
49901;DHT22;35789;48.414;12.768;2023-06-10T18:30:00;17.9;99.9
49901;DHT22;35789;48.414;12.768;2023-06-10T18:35:00;17.8;99.9
49901;DHT22;35789;48.414;12.768;2023-06-10T18:40:00;17.8;99.9
49901;DHT22;35789;48.414;12.768;2023-06-10T18:45:00;17.7;99.9
49901;DHT22;35789;48.414;12.768;2023-06-10T18:50:00;17.7;99.9
49901;DHT22;35789;48.414;12.768;2023-06-10T18:55:00;17.6;99.9
49901;DHT22;35789;48.414;12.768;2023-06-10T19:00:00;17.6;99.9
49901;DHT22;35789;48.414;12.768;2023-06-10T19:05:00;17.6;99.9
49901;DHT22;35789;48.414;12.768;2023-06-10T19:10:00;17.5;99.9
49901;DHT22;35789;48.414;12.768;2023-06-10T19:15:00;17.5;99.9
49901;DHT22;35789;48.414;12.768;2023-06-10T19:20:00;17.5;99.9
49901;DHT22;35789;48.414;12.768;2023-06-10T19:25:00;17.5;99.9
49901;DHT22;35789;48.414;12.768;2023-06-10T19:30:00;17.4;99.9
49901;DHT22;35789;48.414;12.768;2023-06-10T19:35:00;17.3;99.9
49901;DHT22;35789;48.414;12.768;2023-06-10T19:40:00;17.2;99.9
49901;DHT22;35789;48.414;12.768;2023-06-10T19:45:00;17.1;99.9
49901;DHT22;35789;48.414;12.768;2023-06-10T19:50:00;17.1;99.9
49901;DHT22;35789;48.414;12.768;2023-06-10T19:55:00;16.9;99.9
49901;DHT22;35789;48.414;12.768;2023-06-10T20:00:00;16.8;99.9
49901;DHT22;35789;48.414;12.768;2023-06-10T20:05:00;16.8;99.9
49901;DHT22;35789;48.414;12.768;2023-06-10T20:10:00;16.7;99.9
49901;DHT22;35789;48.414;12.768;2023-06-10T20:15:00;16.6;99.9
49901;DHT22;35789;48.414;12.768;2023-06-10T20:20:00;16.6;99.9
49901;DHT22;35789;48.414;12.768;2023-06-10T20:25:00;16.6;99.9
49901;DHT22;35789;48.414;12.768;2023-06-10T20:30:00;16.7;99.9
49901;DHT22;35789;48.414;12.768;2023-06-10T20:35:00;16.8;99.9
49901;DHT22;35789;48.414;12.768;2023-06-10T20:40:00;16.8;99.9
49901;DHT22;35789;48.414;12.768;2023-06-10T20:45:00;16.8;99.9
49901;DHT22;35789;48.414;12.768;2023-06-10T20:50:00;16.9;99.9
49901;DHT22;35789;48.414;12.768;2023-06-10T20:55:00;16.9;99.9
49901;DHT22;35789;48.414;12.768;2023-06-10T21:00:00;16.9;99.9
49901;DHT22;35789;48.414;12.768;2023-06-10T21:05:00;16.9;99.9
49901;DHT22;35789;48.414;12.768;2023-06-10T21:10:00;16.8;99.9
49901;DHT22;35789;48.414;12.768;2023-06-10T21:15:00;16.8;99.9
49901;DHT22;35789;48.414;12.768;2023-06-10T21:20:00;16.7;99.9
49901;DHT22;35789;48.414;12.768;2023-06-10T21:25:00;16.6;99.9
49901;DHT22;35789;48.414;12.768;2023-06-10T21:30:00;16.6;99.9
49901;DHT22;35789;48.414;12.768;2023-06-10T21:35:00;16.5;99.9
49901;DHT22;35789;48.414;12.768;2023-06-10T21:40:00;16.4;99.9
49901;DHT22;35789;48.414;12.768;2023-06-10T21:45:00;16.3;99.9
49901;DHT22;35789;48.414;12.768;2023-06-10T21:50:00;16.2;99.9
49901;DHT22;35789;48.414;12.768;2023-06-10T21:55:00;16.1;99.9
49901;DHT22;35789;48.414;12.768;2023-06-10T22:00:00;16.1;99.9
49901;DHT22;35789;48.414;12.768;2023-06-10T22:05:00;16.0;99.9
49901;DHT22;35789;48.414;12.768;2023-06-10T22:10:00;15.9;99.9
49901;DHT22;35789;48.414;12.768;2023-06-10T22:15:00;15.8;99.9
49901;DHT22;35789;48.414;12.768;2023-06-10T22:20:00;15.8;99.9
49901;DHT22;35789;48.414;12.768;2023-06-10T22:25:00;15.7;99.9
49901;DHT22;35789;48.414;12.768;2023-06-10T22:30:00;15.7;99.9
49901;DHT22;35789;48.414;12.768;2023-06-10T22:35:00;15.7;99.9
49901;DHT22;35789;48.414;12.768;2023-06-10T22:40:00;15.6;99.9
49901;DHT22;35789;48.414;12.768;2023-06-10T22:45:00;15.5;99.9
49901;DHT22;35789;48.414;12.768;2023-06-10T22:50:00;15.5;99.9
49901;DHT22;35789;48.414;12.768;2023-06-10T22:55:00;15.3;99.9
49901;DHT22;35789;48.414;12.768;2023-06-10T23:00:00;15.3;99.9
49901;DHT22;35789;48.414;12.768;2023-06-10T23:05:00;15.3;99.9
49901;DHT22;35789;48.414;12.768;2023-06-10T23:10:00;15.3;99.9
49901;DHT22;35789;48.414;12.768;2023-06-10T23:15:00;15.3;99.9
49901;DHT22;35789;48.414;12.768;2023-06-10T23:20:00;15.3;99.9
49901;DHT22;35789;48.414;12.768;2023-06-10T23:25:00;15.2;99.9
49901;DHT22;35789;48.414;12.768;2023-06-10T23:30:00;15.2;99.9
49901;DHT22;35789;48.414;12.768;2023-06-10T23:35:00;15.1;99.9
49901;DHT22;35789;48.414;12.768;2023-06-10T23:40:00;15.1;99.9
49901;DHT22;35789;48.414;12.768;2023-06-10T23:45:00;14.9;99.9
49901;DHT22;35789;48.414;12.768;2023-06-10T23:50:00;14.9;99.9
49901;DHT22;35789;48.414;12.768;2023-06-10T23:55:00;14.9;99.9
